Pleasant Unity, Pennsylvania
Current Conditions -  °F | °C
As of 12:45 PM on Friday 28 Nov 2014 (Local Time) from KLBE Reporting Station
Broken Clouds Broken Clouds  
Wind Chill: 17°   Ceiling: 3500
Heat Index: 27°   Visibility: 10mi
Dew Point: 14°   Wind: 9mph
Humidity: 59%   Direction: 280°W
Pressure: 30.3"   Gusts: NA
Location:  40.24°N, 79.45°W
Report Text: KLBE 281745Z 28008KT 10SM BKN035 M03/M10 A3030
Loading
Personal Weather Stations






























Interactive Weather Map New forecast layout! Learn more

10-Day Weather Forecast

Advertisements
Track Severe Weather on mobile